Aviation Digital Data Service (ADDS)

Output produced by METARs form (1211 UTC 24 February 2018)
found at http://aviationweather.gov/adds/metars/
 
EFKU 241150Z AUTO 31006KT CAVOK M12/M16 Q1038
EFKU 241120Z AUTO 29008KT CAVOK M13/M17 Q1038
EFKU 241050Z AUTO 29007KT 9999 -SHSN FEW010 FEW023 M14/M18 Q1038
EFKU 241020Z AUTO 29006KT 9999 -SN SCT019 M15/M18 Q1038
EFKU 240950Z AUTO 29007KT CAVOK M16/M19 Q1038
EFKU 240920Z AUTO 30005KT CAVOK M17/M20 Q1038
EFKU 240850Z AUTO 31009KT CAVOK M18/M21 Q1038
EFKU 240820Z AUTO 30009KT CAVOK M19/M22 Q1038
EFKU 240750Z AUTO 30009KT 9999 FEW028 M20/M23 Q1038
EFKU 240720Z AUTO 30008KT 9999 -SN OVC026 M20/M23 Q1038
EFKU 240650Z AUTO 30006KT 2200 -SN BKN026 M21/M24 Q1038
EFKU 240620Z AUTO 31007KT 9999 -SHSN FEW024 M22/M25 Q1038
EFKU 240550Z AUTO 30004KT 9999 -SHSN BKN021 M20/M23 Q1038
EFKU 240520Z AUTO 30006KT 7000 -SN BKN014 M20/M23 Q1038
EFKU 240450Z AUTO 30006KT 6000 -SN BKN014 M21/M23 Q1038
EFKU 240420Z AUTO 31004KT 3700 -SN OVC016 M20/M22 Q1038
EFKU 240350Z AUTO 31005KT 9999 -SHSN FEW018 M22/M25 Q1037
EFKU 240320Z AUTO 31007KT 9999 -SHSN NCD M21/M24 Q1037
EFKU 240250Z AUTO 30007KT 9999 -SN NCD M22/M24 Q1037
EFKU 240220Z AUTO 31007KT 6000 -SN NCD M21/M24 Q1037
EFKU 240150Z AUTO 30007KT 9999 -SHSN NCD M22/M24 Q1037
EFKU 240120Z AUTO 30005KT 9999 -SHSN NCD M20/M22 Q1037
EFKU 240050Z AUTO 32006KT CAVOK M19/M21 Q1036
EFKU 240020Z AUTO 32006KT 9999 -SN NCD M19/M21 Q1036
EFKU 232350Z AUTO 31005KT 9999 -SN NCD M18/M21 Q1036
EFKU 232320Z AUTO 30005KT CAVOK M18/M21 Q1036
EFKU 232250Z AUTO 31005KT CAVOK M19/M21 Q1036
EFKU 232220Z AUTO 03003KT CAVOK M19/M21 Q1035
EFKU 232150Z AUTO 35004KT CAVOK M19/M22 Q1035
EFKU 232120Z AUTO 35005KT CAVOK M17/M20 Q1035
EFKU 232050Z AUTO 35004KT CAVOK M16/M19 Q1035
EFKU 232020Z AUTO 36005KT CAVOK M16/M19 Q1034
EFKU 231950Z AUTO 36004KT CAVOK M16/M19 Q1034
EFKU 231920Z AUTO 36004KT CAVOK M15/M19 Q1034
EFKU 231850Z AUTO 36004KT CAVOK M15/M18 Q1034
EFKU 231820Z AUTO 36006KT CAVOK M15/M18 Q1034
EFKU 231750Z AUTO 36006KT CAVOK M14/M18 Q1033
EFKU 231720Z AUTO 35007KT CAVOK M14/M17 Q1033
EFKU 231650Z AUTO 02004KT CAVOK M14/M17 Q1033
EFKU 231620Z AUTO 01006KT CAVOK M13/M17 Q1033
EFKU 231550Z AUTO 34007KT CAVOK M13/M16 Q1032
EFKU 231520Z AUTO 02005KT CAVOK M12/M16 Q1032
EFKU 231450Z AUTO 02006KT CAVOK M12/M16 Q1032
EFKU 231420Z AUTO 01005KT CAVOK M11/M16 Q1032
EFKU 231350Z 01005KT CAVOK M11/M15 Q1032
EFKU 231320Z 36004KT CAVOK M11/M15 Q1031
EFKU 231250Z 02004KT CAVOK M11/M16 Q1031
EFKU 231230Z RTD VRB03KT CAVOK M12/M16 Q1031
EFKU 231150Z 01005KT CAVOK M12/M16 Q1031
EFKU 231120Z 36004KT CAVOK M14/M16 Q1031
EFKU 231050Z 31006KT CAVOK M14/M17 Q1031
EFKU 231020Z 33005KT CAVOK M15/M18 Q1031
EFKU 230950Z 31005KT CAVOK M16/M19 Q1031
EFKU 230920Z 31003KT CAVOK M17/M20 Q1030
EFKU 230850Z 32003KT CAVOK M17/M20 Q1030
EFKU 230820Z 33003KT CAVOK M18/M21 Q1030
EFKU 230750Z 36003KT CAVOK M18/M21 Q1030
EFKU 230720Z 34003KT CAVOK M20/M22 Q1029
EFKU 230650Z 31004KT CAVOK M20/M23 Q1029
EFKU 230620Z 33003KT CAVOK M19/M22 Q1029
EFKU 230550Z AUTO 34003KT CAVOK M20/M23 Q1029
EFKU 230520Z AUTO 36003KT CAVOK M20/M23 Q1029
EFKU 230450Z AUTO 35003KT 9999 -SHSN NCD M20/M23 Q1028
EFKU 230420Z AUTO 34003KT 9999 -SHSN NCD M20/M22 Q1028
EFKU 230350Z AUTO 33003KT 9999 FZFG NCD M19/M22 Q1028
EFKU 230320Z AUTO 33002KT 3200 BR NCD M19/M22 Q1028
EFKU 230250Z AUTO 34003KT CAVOK M19/M21 Q1027
EFKU 230220Z AUTO 34003KT 9999 -SHSN NCD M17/M19 Q1027
EFKU 230150Z AUTO 32003KT 9999 -SHSN SCT019 M18/M20 Q1027
EFKU 230120Z AUTO 31005KT 4000 -SN BKN018 M17/M19 Q1027 RESN
EFKU 230050Z AUTO 32003KT 1600 SN SCT015 M16/M18 Q1027
EFKU 230020Z AUTO 33003KT 3000 -SN NCD M16/M18 Q1027